createdAt,value
2018-09-02T00:00:52.848Z,13.30
2018-09-02T00:03:27.953Z,13.30
2018-09-02T00:06:02.536Z,13.20
2018-09-02T00:08:36.915Z,13.30
2018-09-02T00:11:11.532Z,13.30
2018-09-02T00:13:46.270Z,13.30
2018-09-02T00:16:20.796Z,13.30
2018-09-02T00:18:55.510Z,13.30
2018-09-02T00:21:30.908Z,13.30
2018-09-02T00:24:06.060Z,13.30
2018-09-02T00:26:40.434Z,13.30
2018-09-02T00:29:14.975Z,13.30
2018-09-02T00:31:49.627Z,13.20
2018-09-02T00:34:24.205Z,13.30
2018-09-02T00:36:58.868Z,13.30
2018-09-02T00:39:33.593Z,13.30
2018-09-02T00:42:08.365Z,13.30
2018-09-02T00:44:43.097Z,13.20
2018-09-02T00:47:17.821Z,13.20
2018-09-02T00:49:53.130Z,13.30
2018-09-02T00:52:28.152Z,13.30
2018-09-02T00:55:02.810Z,13.30
2018-09-02T00:57:37.607Z,13.30
2018-09-02T01:00:12.319Z,13.30
2018-09-02T01:02:46.844Z,13.20
2018-09-02T01:05:21.507Z,13.20
2018-09-02T01:07:56.380Z,13.20
2018-09-02T01:10:31.253Z,13.20
2018-09-02T01:13:06.375Z,13.20
2018-09-02T01:15:41.278Z,13.20
2018-09-02T01:18:16.295Z,13.30
2018-09-02T01:20:51.354Z,13.20
2018-09-02T01:23:25.944Z,13.20
2018-09-02T01:26:00.385Z,13.20
2018-09-02T01:28:34.908Z,13.20
2018-09-02T01:31:09.647Z,13.20
2018-09-02T01:33:44.565Z,13.30
2018-09-02T01:36:18.885Z,13.20
2018-09-02T01:38:53.578Z,13.30
2018-09-02T01:41:28.095Z,13.30
2018-09-02T01:44:02.645Z,13.30
2018-09-02T01:46:37.242Z,13.30
2018-09-02T01:49:11.822Z,13.20
2018-09-02T01:51:46.389Z,13.30
2018-09-02T01:54:21.364Z,13.30
2018-09-02T01:56:55.688Z,13.30
2018-09-02T01:59:30.445Z,13.30
2018-09-02T02:02:05.380Z,13.30
2018-09-02T02:04:40.538Z,13.30
2018-09-02T02:07:15.730Z,13.30
2018-09-02T02:09:49.934Z,13.30
2018-09-02T02:12:24.568Z,13.30
2018-09-02T02:14:59.317Z,13.20
2018-09-02T02:17:33.956Z,13.20
2018-09-02T02:20:08.705Z,13.20
2018-09-02T02:22:43.156Z,13.20
2018-09-02T02:25:17.613Z,13.20
2018-09-02T02:27:52.170Z,13.20
2018-09-02T02:30:26.901Z,13.20
2018-09-02T02:33:01.455Z,13.20
2018-09-02T02:35:35.945Z,13.20
2018-09-02T02:38:10.818Z,13.20
2018-09-02T02:40:45.382Z,13.20
2018-09-02T02:43:20.024Z,13.20
2018-09-02T02:45:54.713Z,13.20
2018-09-02T02:48:29.687Z,13.20
2018-09-02T02:51:04.288Z,13.20
2018-09-02T02:53:39.089Z,13.30
2018-09-02T02:56:13.509Z,13.30
2018-09-02T02:58:48.341Z,13.30
2018-09-02T03:01:23.224Z,13.30
2018-09-02T03:03:58.114Z,13.30
2018-09-02T03:06:32.701Z,13.30
2018-09-02T03:09:08.945Z,13.30
2018-09-02T03:11:44.129Z,13.30
2018-09-02T03:14:18.779Z,13.30
2018-09-02T03:16:53.380Z,13.30
2018-09-02T03:19:27.982Z,13.30
2018-09-02T03:22:02.641Z,13.30
2018-09-02T03:24:37.265Z,13.30
2018-09-02T03:27:11.793Z,13.30
2018-09-02T03:29:46.320Z,13.30
2018-09-02T03:32:20.844Z,13.40
2018-09-02T03:34:55.428Z,13.40
2018-09-02T03:37:29.981Z,13.40
2018-09-02T03:40:05.387Z,13.40
2018-09-02T03:42:39.857Z,13.40
2018-09-02T03:45:14.196Z,13.40
2018-09-02T03:47:49.009Z,13.40
2018-09-02T03:50:23.689Z,13.40
2018-09-02T03:52:58.680Z,13.40
2018-09-02T03:55:33.056Z,13.40
2018-09-02T03:58:07.932Z,13.40
2018-09-02T04:00:42.641Z,13.40
2018-09-02T04:03:17.192Z,13.40
2018-09-02T04:05:51.968Z,13.40
2018-09-02T04:08:26.572Z,13.40
2018-09-02T04:11:01.460Z,13.40
2018-09-02T04:13:35.780Z,13.40
2018-09-02T04:16:10.596Z,13.40
2018-09-02T04:18:45.293Z,13.40
2018-09-02T04:21:19.871Z,13.40
2018-09-02T04:23:54.483Z,13.40
2018-09-02T04:26:29.437Z,13.40
2018-09-02T04:29:03.927Z,13.40
2018-09-02T04:31:38.484Z,13.40
2018-09-02T04:34:13.157Z,13.40
2018-09-02T04:36:47.693Z,13.40
2018-09-02T04:39:22.337Z,13.40
2018-09-02T04:41:56.917Z,13.40
2018-09-02T04:44:31.588Z,13.40
2018-09-02T04:47:06.128Z,13.40
2018-09-02T04:49:40.593Z,13.40
2018-09-02T04:52:15.076Z,13.40
2018-09-02T04:54:49.789Z,13.50
2018-09-02T04:57:24.811Z,13.40
2018-09-02T05:00:02.877Z,13.50
2018-09-02T05:02:37.528Z,13.40
2018-09-02T05:05:12.166Z,13.40
2018-09-02T05:07:46.861Z,13.40
2018-09-02T05:10:21.933Z,13.40
2018-09-02T05:12:56.082Z,13.40
2018-09-02T05:15:30.566Z,13.40
2018-09-02T05:18:05.921Z,13.40
2018-09-02T05:20:40.904Z,13.50
2018-09-02T05:23:15.125Z,13.50
2018-09-02T05:25:49.864Z,13.50
2018-09-02T05:28:24.423Z,13.50
2018-09-02T05:30:59.316Z,13.50
2018-09-02T05:33:34.332Z,13.50
2018-09-02T05:36:08.493Z,13.40
2018-09-02T05:38:43.113Z,13.50
2018-09-02T05:41:18.166Z,13.50
2018-09-02T05:43:54.043Z,13.50
2018-09-02T05:46:28.605Z,13.50
2018-09-02T05:49:03.356Z,13.60
2018-09-02T05:51:37.952Z,13.60
2018-09-02T05:54:12.667Z,13.60
2018-09-02T05:56:47.534Z,13.60
2018-09-02T05:59:22.477Z,13.70
2018-09-02T06:01:57.013Z,13.70
2018-09-02T06:04:31.748Z,13.70
2018-09-02T06:07:06.716Z,13.70
2018-09-02T06:09:41.552Z,13.70
2018-09-02T06:12:16.306Z,13.70
2018-09-02T06:14:51.038Z,13.70
2018-09-02T06:17:26.158Z,13.80
2018-09-02T06:20:00.876Z,13.80
2018-09-02T06:22:35.442Z,13.90
2018-09-02T06:25:10.649Z,13.80
2018-09-02T06:27:45.250Z,13.90
2018-09-02T06:30:21.332Z,13.90
2018-09-02T06:32:55.825Z,14.00
2018-09-02T06:35:30.574Z,14.00
2018-09-02T06:38:05.225Z,14.10
2018-09-02T06:40:40.359Z,14.10
2018-09-02T06:43:15.060Z,14.10
2018-09-02T06:45:50.974Z,14.10
2018-09-02T06:48:25.747Z,14.10
2018-09-02T06:51:00.500Z,14.20
2018-09-02T06:53:35.635Z,14.20
2018-09-02T06:56:10.420Z,14.20
2018-09-02T06:58:45.279Z,14.20
2018-09-02T07:01:20.434Z,14.20
2018-09-02T07:03:54.828Z,14.10
2018-09-02T07:06:29.444Z,14.10
2018-09-02T07:09:05.108Z,14.10
2018-09-02T07:11:39.966Z,14.10
2018-09-02T07:14:14.472Z,14.20
2018-09-02T07:16:49.060Z,14.20
2018-09-02T07:19:23.530Z,14.20
2018-09-02T07:21:58.376Z,14.20
2018-09-02T07:24:33.289Z,14.20
2018-09-02T07:27:08.035Z,14.20
2018-09-02T07:29:42.880Z,14.20
2018-09-02T07:32:17.713Z,14.20
2018-09-02T07:34:52.625Z,14.20
2018-09-02T07:37:27.604Z,14.20
2018-09-02T07:40:02.217Z,14.20
2018-09-02T07:42:36.928Z,14.30
2018-09-02T07:45:13.110Z,14.30
2018-09-02T07:47:47.982Z,14.30
2018-09-02T07:50:22.820Z,14.40
2018-09-02T07:52:57.558Z,14.40
2018-09-02T07:55:32.536Z,14.50
2018-09-02T07:58:07.352Z,14.60
2018-09-02T08:00:42.196Z,14.70
2018-09-02T08:03:16.982Z,14.80
2018-09-02T08:05:51.927Z,14.90
2018-09-02T08:08:26.624Z,14.90
2018-09-02T08:11:01.253Z,14.90
2018-09-02T08:13:36.149Z,14.90
2018-09-02T08:16:10.713Z,15.00
2018-09-02T08:18:45.436Z,14.90
2018-09-02T08:21:20.712Z,14.90
2018-09-02T08:23:55.783Z,14.90
2018-09-02T08:26:30.633Z,14.80
2018-09-02T08:29:05.741Z,14.80
2018-09-02T08:31:40.325Z,14.80
2018-09-02T08:34:14.647Z,14.70
2018-09-02T08:36:49.559Z,14.60
2018-09-02T08:39:23.832Z,14.60
2018-09-02T08:41:58.252Z,14.60
2018-09-02T08:44:34.143Z,14.60
2018-09-02T08:47:09.041Z,14.60
2018-09-02T08:49:44.140Z,14.60
2018-09-02T08:52:19.401Z,14.60
2018-09-02T08:54:53.989Z,14.60
2018-09-02T08:57:28.664Z,14.60
2018-09-02T09:00:03.924Z,14.70
2018-09-02T09:02:38.765Z,14.70
2018-09-02T09:05:13.464Z,14.80
2018-09-02T09:07:48.471Z,14.80
2018-09-02T09:10:24.018Z,14.90
2018-09-02T09:12:58.384Z,14.90
2018-09-02T09:15:33.212Z,14.90
2018-09-02T09:18:07.897Z,14.90
2018-09-02T09:20:42.802Z,14.90
2018-09-02T09:23:17.548Z,15.00
2018-09-02T09:25:52.564Z,15.00
2018-09-02T09:28:27.163Z,15.10
2018-09-02T09:31:02.323Z,15.20
2018-09-02T09:33:37.204Z,15.30
2018-09-02T09:36:11.596Z,15.30
2018-09-02T09:38:45.893Z,15.40
2018-09-02T09:41:20.909Z,15.50
2018-09-02T09:43:55.135Z,15.60
2018-09-02T09:46:29.905Z,15.60
2018-09-02T09:49:04.859Z,15.70
2018-09-02T09:51:39.763Z,15.70
2018-09-02T09:54:14.287Z,15.80
2018-09-02T09:56:48.806Z,15.90
2018-09-02T09:59:24.032Z,15.90
2018-09-02T10:01:59.332Z,15.90
2018-09-02T10:04:33.939Z,16.00
2018-09-02T10:07:08.737Z,16.00
2018-09-02T10:09:43.531Z,16.20
2018-09-02T10:12:18.221Z,16.20
2018-09-02T10:14:52.797Z,16.20
2018-09-02T10:17:27.618Z,16.20
2018-09-02T10:20:02.299Z,16.30
2018-09-02T10:22:36.940Z,16.20
2018-09-02T10:25:12.188Z,16.30
2018-09-02T10:27:48.249Z,16.30
2018-09-02T10:30:22.923Z,16.30
2018-09-02T10:32:57.792Z,16.30
2018-09-02T10:35:32.107Z,16.40
2018-09-02T10:38:06.780Z,16.50
2018-09-02T10:40:41.360Z,16.50
2018-09-02T10:43:16.208Z,16.50
2018-09-02T10:45:50.845Z,16.60
2018-09-02T10:48:24.969Z,16.50
2018-09-02T10:50:59.582Z,16.60
2018-09-02T10:53:34.155Z,16.60
2018-09-02T10:56:08.555Z,16.60
2018-09-02T10:58:43.653Z,16.60
2018-09-02T11:01:17.961Z,16.60
2018-09-02T11:03:53.664Z,16.60
2018-09-02T11:06:29.492Z,16.60
2018-09-02T11:09:06.805Z,16.60
2018-09-02T11:11:41.887Z,16.60
2018-09-02T11:14:16.563Z,16.60
2018-09-02T11:16:51.369Z,16.60
2018-09-02T11:19:25.974Z,16.60
2018-09-02T11:22:01.229Z,16.60
2018-09-02T11:24:35.605Z,16.60
2018-09-02T11:27:10.393Z,16.70
2018-09-02T11:29:44.919Z,16.70
2018-09-02T11:32:20.250Z,16.70
2018-09-02T11:34:55.348Z,16.60
2018-09-02T11:37:30.146Z,16.70
2018-09-02T11:40:04.937Z,16.70
2018-09-02T11:42:39.888Z,16.70
2018-09-02T11:45:15.045Z,16.60
2018-09-02T11:47:49.219Z,16.60
2018-09-02T11:50:23.812Z,16.60
2018-09-02T11:52:58.537Z,16.60
2018-09-02T11:55:34.219Z,16.60
2018-09-02T11:58:09.003Z,16.60
2018-09-02T12:00:44.406Z,16.70
2018-09-02T12:03:18.742Z,16.70
2018-09-02T12:05:53.318Z,16.80
2018-09-02T12:08:28.175Z,16.90
2018-09-02T12:11:02.743Z,17.00
2018-09-02T12:13:37.372Z,17.10
2018-09-02T12:16:11.883Z,17.20
2018-09-02T12:18:46.416Z,17.20
2018-09-02T12:21:21.090Z,17.30
2018-09-02T12:23:56.309Z,17.30
2018-09-02T12:26:31.121Z,17.30
2018-09-02T12:29:06.002Z,17.30
2018-09-02T12:31:41.393Z,17.20
2018-09-02T12:34:16.381Z,17.20
2018-09-02T12:36:50.912Z,17.10
2018-09-02T12:39:25.863Z,17.20
2018-09-02T12:42:00.547Z,17.10
2018-09-02T12:44:35.338Z,17.10
2018-09-02T12:47:10.133Z,17.00
2018-09-02T12:49:44.723Z,16.90
2018-09-02T12:52:19.767Z,16.90
2018-09-02T12:54:54.741Z,16.80
2018-09-02T12:57:29.822Z,16.80
2018-09-02T13:00:04.770Z,16.80
2018-09-02T13:02:40.300Z,16.90
2018-09-02T13:05:14.643Z,16.90
2018-09-02T13:07:49.240Z,16.90
2018-09-02T13:10:23.897Z,17.00
2018-09-02T13:12:59.331Z,17.00
2018-09-02T13:15:34.375Z,17.00
2018-09-02T13:18:08.806Z,17.00
2018-09-02T13:20:43.460Z,17.00
2018-09-02T13:23:18.160Z,17.00
2018-09-02T13:25:53.039Z,16.90
2018-09-02T13:28:27.511Z,16.90
2018-09-02T13:31:02.368Z,16.90
2018-09-02T13:33:37.069Z,16.90
2018-09-02T13:36:11.826Z,16.90
2018-09-02T13:38:46.672Z,16.90
2018-09-02T13:41:21.256Z,17.00
2018-09-02T13:43:56.133Z,17.10
2018-09-02T13:46:30.328Z,17.20
2018-09-02T13:49:06.507Z,17.30
2018-09-02T13:51:41.905Z,17.40
2018-09-02T13:54:16.629Z,17.50
2018-09-02T13:56:51.229Z,17.60
2018-09-02T13:59:26.449Z,17.70
2018-09-02T14:02:00.887Z,17.80
2018-09-02T14:04:35.732Z,17.90
2018-09-02T14:07:10.472Z,17.90
2018-09-02T14:09:45.249Z,17.90
2018-09-02T14:12:19.919Z,17.80
2018-09-02T14:14:54.753Z,17.80
2018-09-02T14:17:28.998Z,17.70
2018-09-02T14:20:03.697Z,17.60
2018-09-02T14:22:38.292Z,17.60
2018-09-02T14:25:13.464Z,17.60
2018-09-02T14:27:48.627Z,17.60
2018-09-02T14:30:23.934Z,17.50
2018-09-02T14:32:59.154Z,17.50
2018-09-02T14:35:33.804Z,17.50
2018-09-02T14:38:08.238Z,17.50
2018-09-02T14:40:42.860Z,17.50
2018-09-02T14:43:17.588Z,17.50
2018-09-02T14:45:52.391Z,17.40
2018-09-02T14:48:27.334Z,17.40
2018-09-02T14:51:02.100Z,17.50
2018-09-02T14:53:36.800Z,17.50
2018-09-02T14:56:11.678Z,17.50
2018-09-02T14:58:46.506Z,17.60
2018-09-02T15:01:21.153Z,17.70
2018-09-02T15:03:55.857Z,17.70
2018-09-02T15:06:30.636Z,17.80
2018-09-02T15:09:07.872Z,17.80
2018-09-02T15:11:43.358Z,17.80
2018-09-02T15:14:17.677Z,17.80
2018-09-02T15:16:52.505Z,17.80
2018-09-02T15:19:26.943Z,17.80
2018-09-02T15:22:01.807Z,17.80
2018-09-02T15:24:36.514Z,17.80
2018-09-02T15:27:11.336Z,17.80
2018-09-02T15:29:45.703Z,17.80
2018-09-02T15:32:20.427Z,17.80
2018-09-02T15:34:54.939Z,17.80
2018-09-02T15:37:29.596Z,17.80
2018-09-02T15:40:04.588Z,17.70
2018-09-02T15:42:39.182Z,17.70
2018-09-02T15:45:13.308Z,17.70
2018-09-02T15:47:48.196Z,17.70
2018-09-02T15:50:22.772Z,17.60
2018-09-02T15:52:57.287Z,17.60
2018-09-02T15:55:32.091Z,17.60
2018-09-02T15:58:06.722Z,17.50
2018-09-02T16:00:41.683Z,17.50
2018-09-02T16:03:15.996Z,17.40
2018-09-02T16:05:50.693Z,17.30
2018-09-02T16:08:25.331Z,17.30
2018-09-02T16:11:00.136Z,17.20
2018-09-02T16:13:35.013Z,17.10
2018-09-02T16:16:09.473Z,17.00
2018-09-02T16:18:44.548Z,17.00
2018-09-02T16:21:19.000Z,17.00
2018-09-02T16:23:53.721Z,16.90
2018-09-02T16:26:28.317Z,16.90
2018-09-02T16:29:03.293Z,16.90
2018-09-02T16:31:38.082Z,17.00
2018-09-02T16:34:12.622Z,16.90
2018-09-02T16:36:47.011Z,16.90
2018-09-02T16:39:21.748Z,17.00
2018-09-02T16:41:56.367Z,16.90
2018-09-02T16:44:32.898Z,16.90
2018-09-02T16:47:08.233Z,16.90
2018-09-02T16:49:42.568Z,16.80
2018-09-02T16:52:17.265Z,16.80
2018-09-02T16:54:52.055Z,16.80
2018-09-02T16:57:26.944Z,16.80
2018-09-02T17:00:01.780Z,16.80
2018-09-02T17:02:36.276Z,16.80
2018-09-02T17:05:15.016Z,16.80
2018-09-02T17:07:50.546Z,16.80
2018-09-02T17:10:25.357Z,16.80
2018-09-02T17:13:00.178Z,16.80
2018-09-02T17:15:34.772Z,16.80
2018-09-02T17:18:09.557Z,16.70
2018-09-02T17:20:46.783Z,16.70
2018-09-02T17:23:21.675Z,16.70
2018-09-02T17:25:56.408Z,16.60
2018-09-02T17:28:31.050Z,16.70
2018-09-02T17:31:05.756Z,16.70
2018-09-02T17:33:41.300Z,16.60
2018-09-02T17:36:15.993Z,16.50
2018-09-02T17:38:50.586Z,16.50
2018-09-02T17:41:25.527Z,16.50
2018-09-02T17:44:00.037Z,16.40
2018-09-02T17:46:34.808Z,16.40
2018-09-02T17:49:09.420Z,16.50
2018-09-02T17:51:44.869Z,16.40
2018-09-02T17:54:19.190Z,16.40
2018-09-02T17:56:53.961Z,16.40
2018-09-02T17:59:28.355Z,16.40
2018-09-02T18:02:03.001Z,16.40
2018-09-02T18:04:37.608Z,16.40
2018-09-02T18:07:12.340Z,16.30
2018-09-02T18:09:46.911Z,16.30
2018-09-02T18:12:21.503Z,16.30
2018-09-02T18:14:56.244Z,16.30
2018-09-02T18:17:31.133Z,16.30
2018-09-02T18:20:06.445Z,16.30
2018-09-02T18:22:41.331Z,16.30
2018-09-02T18:25:15.972Z,16.20
2018-09-02T18:27:53.758Z,16.20
2018-09-02T18:30:28.837Z,16.20
2018-09-02T18:33:03.106Z,16.20
2018-09-02T18:35:37.784Z,16.20
2018-09-02T18:38:12.900Z,16.20
2018-09-02T18:40:47.488Z,16.20
2018-09-02T18:43:22.581Z,16.20
2018-09-02T18:45:56.792Z,16.20
2018-09-02T18:48:31.237Z,16.10
2018-09-02T18:51:05.894Z,16.10
2018-09-02T18:53:40.133Z,16.10
2018-09-02T18:56:15.058Z,16.20
2018-09-02T18:58:49.902Z,16.20
2018-09-02T19:01:24.663Z,16.10
2018-09-02T19:03:59.163Z,16.10
2018-09-02T19:06:34.870Z,16.10
2018-09-02T19:09:09.903Z,16.10
2018-09-02T19:11:49.450Z,16.10
2018-09-02T19:14:24.432Z,16.10
2018-09-02T19:16:59.512Z,16.10
2018-09-02T19:19:34.253Z,16.10
2018-09-02T19:22:08.759Z,16.10
2018-09-02T19:24:43.674Z,16.10
2018-09-02T19:27:18.200Z,16.10
2018-09-02T19:29:52.918Z,16.10
2018-09-02T19:32:27.612Z,16.10
2018-09-02T19:35:02.295Z,16.10
2018-09-02T19:37:37.570Z,16.10
2018-09-02T19:40:12.559Z,16.10
2018-09-02T19:42:47.592Z,16.10
2018-09-02T19:45:22.418Z,16.10
2018-09-02T19:47:57.356Z,16.00
2018-09-02T19:50:32.647Z,16.10
2018-09-02T19:53:07.834Z,16.00
2018-09-02T19:55:42.348Z,16.00
2018-09-02T19:58:17.210Z,16.00
2018-09-02T20:00:51.932Z,16.00
2018-09-02T20:03:26.590Z,15.90
2018-09-02T20:06:01.643Z,15.90
2018-09-02T20:08:36.460Z,15.90
2018-09-02T20:11:11.279Z,15.90
2018-09-02T20:13:45.740Z,15.90
2018-09-02T20:16:20.471Z,15.80
2018-09-02T20:18:55.138Z,15.80
2018-09-02T20:21:29.409Z,15.80
2018-09-02T20:24:04.267Z,15.80
2018-09-02T20:26:38.996Z,15.80
2018-09-02T20:29:13.494Z,15.80
2018-09-02T20:31:47.711Z,15.80
2018-09-02T20:34:22.451Z,15.80
2018-09-02T20:36:57.160Z,15.90
2018-09-02T20:39:31.925Z,15.80
2018-09-02T20:42:06.316Z,15.80
2018-09-02T20:44:41.061Z,15.80
2018-09-02T20:47:15.753Z,15.80
2018-09-02T20:49:50.614Z,15.90
2018-09-02T20:52:25.738Z,15.90
2018-09-02T20:54:59.988Z,15.80
2018-09-02T20:57:34.965Z,15.90
2018-09-02T21:00:09.696Z,15.90
2018-09-02T21:02:44.470Z,16.00
2018-09-02T21:05:19.302Z,15.90
2018-09-02T21:07:53.980Z,15.80
2018-09-02T21:10:28.631Z,15.80
2018-09-02T21:13:03.352Z,15.80
2018-09-02T21:15:38.042Z,15.80
2018-09-02T21:18:12.921Z,15.80
2018-09-02T21:20:47.739Z,15.80
2018-09-02T21:23:22.569Z,15.80
2018-09-02T21:25:57.535Z,15.80
2018-09-02T21:28:32.194Z,15.80
2018-09-02T21:31:06.892Z,15.90
2018-09-02T21:33:41.477Z,15.80
2018-09-02T21:36:16.029Z,15.90
2018-09-02T21:38:50.718Z,15.90
2018-09-02T21:41:25.229Z,15.90
2018-09-02T21:43:59.787Z,15.90
2018-09-02T21:46:34.515Z,15.90
2018-09-02T21:49:09.208Z,15.90
2018-09-02T21:51:43.935Z,16.00
2018-09-02T21:54:18.830Z,15.90
2018-09-02T21:56:53.713Z,16.00
2018-09-02T21:59:28.634Z,15.90
2018-09-02T22:02:03.075Z,15.90
2018-09-02T22:04:37.707Z,15.90
2018-09-02T22:07:12.403Z,15.90
2018-09-02T22:09:47.155Z,16.00
2018-09-02T22:12:22.204Z,15.90
2018-09-02T22:14:56.723Z,15.90
2018-09-02T22:17:31.400Z,16.00
2018-09-02T22:20:06.443Z,16.00
2018-09-02T22:22:40.796Z,16.00
2018-09-02T22:25:15.641Z,16.00
2018-09-02T22:27:50.656Z,16.00
2018-09-02T22:30:25.700Z,15.90
2018-09-02T22:33:00.293Z,15.90
2018-09-02T22:35:35.124Z,16.00
2018-09-02T22:38:09.948Z,15.90
2018-09-02T22:40:44.660Z,15.90
2018-09-02T22:43:19.206Z,15.90
2018-09-02T22:45:53.715Z,15.90
2018-09-02T22:48:28.495Z,15.80
2018-09-02T22:51:02.832Z,15.80
2018-09-02T22:53:37.379Z,15.70
2018-09-02T22:56:12.743Z,15.70
2018-09-02T22:58:47.695Z,15.70
2018-09-02T23:01:22.640Z,15.60
2018-09-02T23:03:57.329Z,15.60
2018-09-02T23:06:32.042Z,15.50
2018-09-02T23:09:07.577Z,15.50
2018-09-02T23:11:42.374Z,15.40
2018-09-02T23:14:17.115Z,15.40
2018-09-02T23:16:51.887Z,15.30
2018-09-02T23:19:26.516Z,15.20
2018-09-02T23:22:01.697Z,15.20
2018-09-02T23:24:36.897Z,15.10
2018-09-02T23:27:11.797Z,15.10
2018-09-02T23:29:46.989Z,15.00
2018-09-02T23:32:22.332Z,15.00
2018-09-02T23:34:56.708Z,14.90
2018-09-02T23:37:31.470Z,14.90
2018-09-02T23:40:05.969Z,14.80
2018-09-02T23:42:41.033Z,14.80
2018-09-02T23:45:16.090Z,14.70
2018-09-02T23:47:51.317Z,14.70
2018-09-02T23:50:26.302Z,14.70
2018-09-02T23:53:01.403Z,14.70
2018-09-02T23:55:36.356Z,14.60
2018-09-02T23:58:10.904Z,14.70
